createdAt,value
2019-04-26T00:00:07.592Z,63.60
2019-04-26T00:01:08.762Z,62.62
2019-04-26T00:02:07.712Z,62.82
2019-04-26T00:03:07.788Z,61.57
2019-04-26T00:04:07.714Z,62.49
2019-04-26T00:05:07.846Z,62.59
2019-04-26T00:06:08.888Z,62.79
2019-04-26T00:07:08.129Z,62.82
2019-04-26T00:08:07.499Z,63.10
2019-04-26T00:09:07.495Z,62.82
2019-04-26T00:10:07.481Z,63.94
2019-04-26T00:11:07.465Z,63.64
2019-04-26T00:12:07.454Z,63.94
2019-04-26T00:13:07.444Z,63.54
2019-04-26T00:14:07.441Z,63.54
2019-04-26T00:15:07.422Z,63.84
2019-04-26T00:16:07.413Z,63.74
2019-04-26T00:17:07.399Z,63.77
2019-04-26T00:18:07.389Z,64.35
2019-04-26T00:19:07.386Z,64.76
2019-04-26T00:20:07.365Z,64.15
2019-04-26T00:21:07.355Z,64.18
2019-04-26T00:22:07.345Z,64.28
2019-04-26T00:23:07.335Z,63.84
2019-04-26T00:24:07.356Z,64.07
2019-04-26T00:25:07.315Z,64.79
2019-04-26T00:26:07.303Z,63.16
2019-04-26T00:27:07.291Z,64.15
2019-04-26T00:28:07.281Z,64.76
2019-04-26T00:29:07.268Z,63.74
2019-04-26T00:30:07.316Z,64.04
2019-04-26T00:31:07.246Z,63.67
2019-04-26T00:32:07.236Z,63.94
2019-04-26T00:33:07.227Z,64.69
2019-04-26T00:34:07.213Z,64.99
2019-04-26T00:35:07.216Z,65.19
2019-04-26T00:36:07.191Z,64.69
2019-04-26T00:37:07.182Z,65.53
2019-04-26T00:38:07.169Z,65.60
2019-04-26T00:39:07.160Z,65.73
2019-04-26T00:40:07.158Z,65.83
2019-04-26T00:41:07.140Z,65.39
2019-04-26T00:42:07.124Z,65.33
2019-04-26T00:43:07.113Z,65.94
2019-04-26T00:44:07.104Z,65.43
2019-04-26T00:45:07.099Z,66.14
2019-04-26T00:46:07.086Z,65.73
2019-04-26T00:47:07.075Z,66.35
2019-04-26T00:48:07.057Z,66.14
2019-04-26T00:49:07.046Z,66.04
2019-04-26T00:50:07.049Z,66.14
2019-04-26T00:51:07.030Z,66.14
2019-04-26T00:52:07.014Z,65.63
2019-04-26T00:53:07.007Z,66.04
2019-04-26T00:54:06.991Z,66.65
2019-04-26T00:55:06.989Z,66.65
2019-04-26T00:56:06.969Z,66.65
2019-04-26T00:57:06.964Z,66.99
2019-04-26T00:58:06.947Z,66.65
2019-04-26T00:59:06.936Z,66.96
2019-04-26T01:00:06.936Z,67.29
2019-04-26T01:01:06.915Z,67.08
2019-04-26T01:02:06.903Z,67.69
2019-04-26T01:03:06.894Z,67.19
2019-04-26T01:04:06.881Z,67.19
2019-04-26T01:05:06.878Z,67.49
2019-04-26T01:06:06.858Z,67.08
2019-04-26T01:07:06.848Z,67.60
2019-04-26T01:08:06.840Z,67.39
2019-04-26T01:09:06.831Z,67.49
2019-04-26T01:10:06.825Z,67.69
2019-04-26T01:11:06.805Z,67.80
2019-04-26T01:12:06.796Z,68.10
2019-04-26T01:13:06.786Z,67.69
2019-04-26T01:14:06.777Z,67.69
2019-04-26T01:15:06.774Z,67.49
2019-04-26T01:16:06.751Z,67.80
2019-04-26T01:17:06.742Z,68.10
2019-04-26T01:18:06.729Z,68.01
2019-04-26T01:19:06.721Z,68.21
2019-04-26T01:20:06.720Z,68.51
2019-04-26T01:21:06.697Z,67.90
2019-04-26T01:22:06.687Z,67.90
2019-04-26T01:23:06.675Z,68.31
2019-04-26T01:24:06.664Z,68.51
2019-04-26T01:25:06.665Z,68.31
2019-04-26T01:26:06.643Z,68.54
2019-04-26T01:27:06.633Z,68.95
2019-04-26T01:28:06.620Z,69.15
2019-04-26T01:29:06.611Z,68.95
2019-04-26T01:30:06.628Z,69.15
2019-04-26T01:31:06.588Z,69.15
2019-04-26T01:32:06.581Z,68.85
2019-04-26T01:33:06.566Z,69.36
2019-04-26T01:34:06.554Z,69.36
2019-04-26T01:35:06.545Z,69.36
2019-04-26T01:36:12.967Z,69.76
2019-04-26T01:37:07.522Z,69.67
2019-04-26T01:38:06.511Z,69.87
2019-04-26T01:39:06.499Z,69.76
2019-04-26T01:40:06.488Z,68.85
2019-04-26T01:41:06.486Z,69.67
2019-04-26T01:42:06.521Z,69.67
2019-04-26T01:43:06.462Z,69.87
2019-04-26T01:44:06.444Z,69.36
2019-04-26T01:45:06.432Z,69.67
2019-04-26T01:46:06.430Z,69.70
2019-04-26T01:47:06.409Z,69.76
2019-04-26T01:48:06.400Z,69.67
2019-04-26T01:49:06.389Z,69.67
2019-04-26T01:50:06.377Z,70.10
2019-04-26T01:51:06.375Z,69.49
2019-04-26T01:52:06.358Z,70.10
2019-04-26T01:53:06.344Z,70.38
2019-04-26T01:54:06.337Z,69.70
2019-04-26T01:55:06.331Z,69.90
2019-04-26T01:56:06.319Z,70.41
2019-04-26T01:57:06.301Z,69.90
2019-04-26T01:58:06.290Z,69.90
2019-04-26T01:59:06.277Z,70.41
2019-04-26T02:00:06.268Z,70.61
2019-04-26T02:01:06.275Z,70.61
2019-04-26T02:02:06.244Z,71.02
2019-04-26T02:03:06.236Z,70.54
2019-04-26T02:04:06.222Z,70.75
2019-04-26T02:05:06.219Z,71.23
2019-04-26T02:06:06.213Z,71.36
2019-04-26T02:07:06.190Z,71.26
2019-04-26T02:08:06.179Z,71.36
2019-04-26T02:09:06.168Z,71.56
2019-04-26T02:10:06.159Z,71.15
2019-04-26T02:11:06.177Z,71.06
2019-04-26T02:12:06.141Z,71.77
2019-04-26T02:13:06.125Z,71.67
2019-04-26T02:14:06.114Z,71.97
2019-04-26T02:15:06.103Z,71.77
2019-04-26T02:16:06.139Z,71.67
2019-04-26T02:17:06.093Z,71.67
2019-04-26T02:18:06.076Z,72.08
2019-04-26T02:19:06.061Z,72.08
2019-04-26T02:20:06.056Z,71.97
2019-04-26T02:21:06.039Z,71.67
2019-04-26T02:22:06.041Z,71.67
2019-04-26T02:23:06.023Z,72.08
2019-04-26T02:24:06.008Z,71.67
2019-04-26T02:25:05.999Z,71.67
2019-04-26T02:26:05.990Z,71.77
2019-04-26T02:27:05.987Z,71.87
2019-04-26T02:28:05.972Z,71.84
2019-04-26T02:29:05.957Z,72.08
2019-04-26T02:30:05.948Z,71.87
2019-04-26T02:31:05.936Z,71.97
2019-04-26T02:32:05.939Z,72.17
2019-04-26T02:33:05.918Z,73.19
2019-04-26T02:34:05.907Z,73.10
2019-04-26T02:35:05.903Z,72.99
2019-04-26T02:36:05.882Z,73.10
2019-04-26T02:37:05.881Z,72.99
2019-04-26T02:38:05.868Z,73.23
2019-04-26T02:39:05.853Z,73.23
2019-04-26T02:40:05.847Z,73.10
2019-04-26T02:41:05.836Z,73.10
2019-04-26T02:42:05.836Z,73.43
2019-04-26T02:43:05.810Z,73.40
2019-04-26T02:44:05.866Z,73.43
2019-04-26T02:45:05.792Z,73.64
2019-04-26T02:46:05.779Z,73.30
2019-04-26T02:47:05.799Z,73.81
2019-04-26T02:48:05.759Z,73.94
2019-04-26T02:49:05.747Z,73.71
2019-04-26T02:50:05.737Z,73.54
2019-04-26T02:51:05.728Z,73.81
2019-04-26T02:52:05.715Z,73.84
2019-04-26T02:53:05.713Z,74.32
2019-04-26T02:54:05.696Z,74.11
2019-04-26T02:55:05.682Z,74.25
2019-04-26T02:56:05.674Z,74.45
2019-04-26T02:57:05.663Z,74.35
2019-04-26T02:58:05.671Z,74.35
2019-04-26T02:59:05.645Z,74.35
2019-04-26T03:00:05.633Z,74.15
2019-04-26T03:01:05.644Z,74.45
2019-04-26T03:02:05.612Z,74.45
2019-04-26T03:03:05.620Z,74.96
2019-04-26T03:04:05.588Z,74.35
2019-04-26T03:05:05.583Z,74.15
2019-04-26T03:06:05.567Z,74.66
2019-04-26T03:07:05.563Z,74.15
2019-04-26T03:08:05.558Z,74.96
2019-04-26T03:09:05.537Z,73.91
2019-04-26T03:10:05.528Z,74.45
2019-04-26T03:11:05.518Z,74.32
2019-04-26T03:12:05.505Z,74.15
2019-04-26T03:13:05.503Z,74.11
2019-04-26T03:14:05.482Z,73.91
2019-04-26T03:15:13.848Z,73.81
2019-04-26T03:16:06.553Z,73.60
2019-04-26T03:17:05.450Z,73.50
2019-04-26T03:18:05.449Z,73.81
2019-04-26T03:19:05.440Z,73.19
2019-04-26T03:20:05.420Z,73.26
2019-04-26T03:21:05.408Z,73.81
2019-04-26T03:22:05.401Z,73.26
2019-04-26T03:23:05.399Z,73.88
2019-04-26T03:24:05.384Z,73.81
2019-04-26T03:25:05.369Z,73.71
2019-04-26T03:26:05.356Z,73.60
2019-04-26T03:27:05.345Z,73.91
2019-04-26T03:28:05.344Z,74.32
2019-04-26T03:29:05.322Z,74.21
2019-04-26T03:30:19.278Z,74.52
2019-04-26T03:31:06.302Z,74.93
2019-04-26T03:32:05.316Z,74.83
2019-04-26T03:33:05.416Z,74.93
2019-04-26T03:34:05.602Z,74.32
2019-04-26T03:35:05.260Z,74.83
2019-04-26T03:36:05.267Z,74.62
2019-04-26T03:37:19.388Z,74.93
2019-04-26T03:38:06.265Z,74.93
2019-04-26T03:39:05.218Z,74.32
2019-04-26T03:40:05.208Z,74.83
2019-04-26T03:41:05.196Z,75.16
2019-04-26T03:42:05.186Z,74.93
2019-04-26T03:43:05.174Z,75.27
2019-04-26T03:44:05.182Z,74.96
2019-04-26T03:45:05.163Z,74.52
2019-04-26T03:46:05.155Z,74.96
2019-04-26T03:47:05.132Z,74.42
2019-04-26T03:48:05.130Z,75.27
2019-04-26T03:49:05.121Z,74.96
2019-04-26T03:50:05.103Z,74.52
2019-04-26T03:51:05.098Z,75.03
2019-04-26T03:52:05.086Z,75.07
2019-04-26T03:53:05.069Z,75.13
2019-04-26T03:54:05.069Z,75.07
2019-04-26T03:55:05.053Z,75.44
2019-04-26T03:56:05.038Z,75.03
2019-04-26T03:57:05.031Z,75.23
2019-04-26T03:58:05.020Z,74.73
2019-04-26T03:59:05.021Z,75.44
2019-04-26T04:00:05.001Z,75.74
2019-04-26T04:01:04.983Z,75.74
2019-04-26T04:02:04.977Z,75.54
2019-04-26T04:03:04.965Z,75.64
2019-04-26T04:04:04.964Z,75.74
2019-04-26T04:05:04.943Z,75.85
2019-04-26T04:06:04.933Z,75.64
2019-04-26T04:07:05.254Z,75.54
2019-04-26T04:08:04.910Z,75.74
2019-04-26T04:09:04.909Z,75.23
2019-04-26T04:10:04.890Z,75.74
2019-04-26T04:11:04.880Z,75.64
2019-04-26T04:12:11.916Z,75.95
2019-04-26T04:13:05.859Z,75.74
2019-04-26T04:14:05.048Z,75.64
2019-04-26T04:15:04.841Z,75.44
2019-04-26T04:16:04.826Z,75.74
2019-04-26T04:17:04.820Z,76.05
2019-04-26T04:18:04.806Z,75.74
2019-04-26T04:19:04.986Z,75.13
2019-04-26T04:20:04.782Z,75.23
2019-04-26T04:21:04.773Z,75.74
2019-04-26T04:22:04.763Z,75.74
2019-04-26T04:23:04.756Z,75.95
2019-04-26T04:24:04.745Z,75.95
2019-04-26T04:25:04.739Z,76.12
2019-04-26T04:26:04.719Z,76.12
2019-04-26T04:27:04.713Z,76.12
2019-04-26T04:28:04.697Z,76.22
2019-04-26T04:29:04.687Z,76.01
2019-04-26T04:30:04.685Z,75.92
2019-04-26T04:31:04.668Z,75.92
2019-04-26T04:32:04.659Z,75.81
2019-04-26T04:33:04.641Z,75.20
2019-04-26T04:34:04.631Z,74.96
2019-04-26T04:35:06.814Z,74.96
2019-04-26T04:36:04.609Z,75.37
2019-04-26T04:37:04.600Z,75.27
2019-04-26T04:38:09.612Z,75.33
2019-04-26T04:39:12.545Z,74.69
2019-04-26T04:40:05.576Z,73.33
2019-04-26T04:41:08.217Z,72.99
2019-04-26T04:42:04.554Z,73.02
2019-04-26T04:43:04.628Z,73.63
2019-04-26T04:44:04.521Z,73.94
2019-04-26T04:45:04.520Z,74.24
2019-04-26T04:46:04.580Z,74.35
2019-04-26T04:47:22.272Z,74.24
2019-04-26T04:48:05.478Z,74.65
2019-04-26T04:49:04.467Z,74.62
2019-04-26T04:50:04.490Z,74.52
2019-04-26T04:51:04.568Z,74.21
2019-04-26T04:52:04.434Z,74.01
2019-04-26T04:53:04.426Z,74.11
2019-04-26T04:54:04.415Z,74.31
2019-04-26T04:55:07.708Z,73.60
2019-04-26T04:56:04.401Z,74.18
2019-04-26T04:57:04.388Z,73.06
2019-04-26T04:58:04.369Z,72.78
2019-04-26T04:59:04.362Z,71.64
2019-04-26T05:00:04.349Z,69.34
2019-04-26T05:01:04.345Z,68.97
2019-04-26T05:02:04.326Z,67.25
2019-04-26T05:03:04.314Z,64.76
2019-04-26T05:04:04.304Z,63.90
2019-04-26T05:05:04.295Z,62.60
2019-04-26T05:06:07.596Z,60.93
2019-04-26T05:07:04.271Z,59.56
2019-04-26T05:08:06.640Z,58.93
2019-04-26T05:09:04.251Z,57.26
2019-04-26T05:10:04.242Z,56.06
2019-04-26T05:11:04.243Z,56.63
2019-04-26T05:12:04.218Z,56.01
2019-04-26T05:13:04.209Z,55.03
2019-04-26T05:14:04.197Z,56.46
2019-04-26T05:15:04.186Z,56.43
2019-04-26T05:16:04.186Z,55.58
2019-04-26T05:17:04.166Z,53.72
2019-04-26T05:18:04.155Z,53.27
2019-04-26T05:19:04.147Z,52.22
2019-04-26T05:20:04.144Z,50.79
2019-04-26T05:21:04.149Z,49.95
2019-04-26T05:22:04.113Z,49.32
2019-04-26T05:23:04.103Z,49.42
2019-04-26T05:24:04.093Z,49.18
2019-04-26T05:25:04.083Z,47.86
2019-04-26T05:26:04.075Z,46.96
2019-04-26T05:27:04.073Z,47.56
2019-04-26T05:28:04.052Z,46.98
2019-04-26T05:29:04.044Z,47.75
2019-04-26T05:30:04.037Z,48.18
2019-04-26T05:31:04.025Z,46.88
2019-04-26T05:32:04.022Z,46.98
2019-04-26T05:33:04.002Z,46.56
2019-04-26T05:34:03.995Z,47.03
2019-04-26T05:35:03.982Z,46.20
2019-04-26T05:36:03.971Z,44.60
2019-04-26T05:37:03.970Z,44.92
2019-04-26T05:38:03.952Z,44.62
2019-04-26T05:39:03.943Z,46.06
2019-04-26T05:40:03.935Z,46.78
2019-04-26T05:41:03.927Z,47.28
2019-04-26T05:42:03.923Z,46.78
2019-04-26T05:43:03.905Z,48.00
2019-04-26T05:44:03.895Z,47.38
2019-04-26T05:45:03.885Z,46.66
2019-04-26T05:46:03.877Z,46.56
2019-04-26T05:47:03.905Z,48.25
2019-04-26T05:48:11.225Z,49.97
2019-04-26T05:49:04.847Z,49.65
2019-04-26T05:50:03.838Z,49.44
2019-04-26T05:51:03.827Z,48.32
2019-04-26T05:52:03.819Z,48.02
2019-04-26T05:53:03.817Z,48.20
2019-04-26T05:54:03.803Z,48.50
2019-04-26T05:55:03.787Z,48.30
2019-04-26T05:56:03.781Z,47.16
2019-04-26T05:57:03.768Z,47.06
2019-04-26T05:58:03.769Z,47.16
2019-04-26T05:59:03.749Z,45.84
2019-04-26T06:00:03.758Z,47.44
2019-04-26T06:01:03.732Z,46.09
2019-04-26T06:02:03.726Z,45.94
2019-04-26T06:03:03.719Z,46.12
2019-04-26T06:04:03.703Z,45.40
2019-04-26T06:05:03.691Z,45.82
2019-04-26T06:06:05.305Z,45.28
2019-04-26T06:07:03.672Z,45.00
2019-04-26T06:08:03.678Z,46.01
2019-04-26T06:09:03.655Z,45.82
2019-04-26T06:10:03.644Z,45.82
2019-04-26T06:11:03.634Z,47.36
2019-04-26T06:12:03.625Z,48.58
2019-04-26T06:13:03.626Z,47.24
2019-04-26T06:14:03.606Z,47.11
2019-04-26T06:15:03.597Z,46.00
2019-04-26T06:16:03.588Z,46.99
2019-04-26T06:17:03.578Z,46.49
2019-04-26T06:18:03.578Z,46.65
2019-04-26T06:19:03.564Z,45.61
2019-04-26T06:20:03.553Z,45.75
2019-04-26T06:21:03.542Z,45.65
2019-04-26T06:22:03.532Z,45.33
2019-04-26T06:23:03.534Z,44.52
2019-04-26T06:24:03.516Z,45.51
2019-04-26T06:25:03.510Z,44.12
2019-04-26T06:26:04.658Z,44.99
2019-04-26T06:27:13.152Z,44.55
2019-04-26T06:28:04.498Z,43.26
2019-04-26T06:29:03.465Z,43.71
2019-04-26T06:30:03.542Z,43.06
2019-04-26T06:31:03.528Z,43.60
2019-04-26T06:32:04.659Z,44.49
2019-04-26T06:33:06.087Z,44.55
2019-04-26T06:34:03.445Z,43.74
2019-04-26T06:35:03.582Z,42.88
2019-04-26T06:36:04.338Z,44.57
2019-04-26T06:37:04.355Z,43.93
2019-04-26T06:38:03.988Z,43.22
2019-04-26T06:39:04.214Z,43.20
2019-04-26T06:40:04.413Z,42.17
2019-04-26T06:41:04.345Z,42.54
2019-04-26T06:42:03.347Z,42.31
2019-04-26T06:43:03.341Z,43.14
2019-04-26T06:44:03.344Z,43.16
2019-04-26T06:45:03.323Z,43.93
2019-04-26T06:46:03.328Z,43.04
2019-04-26T06:47:04.029Z,44.67
2019-04-26T06:48:03.952Z,44.32
2019-04-26T06:49:03.436Z,44.79
2019-04-26T06:50:03.522Z,44.99
2019-04-26T06:51:03.274Z,44.35
2019-04-26T06:52:03.264Z,44.01
2019-04-26T06:53:03.591Z,42.90
2019-04-26T06:54:03.518Z,42.98
2019-04-26T06:55:04.242Z,43.20
2019-04-26T06:56:03.221Z,43.00
2019-04-26T06:57:10.631Z,44.65
2019-04-26T06:58:04.914Z,44.55
2019-04-26T06:59:03.516Z,44.71
2019-04-26T07:00:04.399Z,43.06
2019-04-26T07:01:03.305Z,42.46
2019-04-26T07:02:03.170Z,42.36
2019-04-26T07:03:03.602Z,42.68
2019-04-26T07:04:04.169Z,42.66
2019-04-26T07:05:03.153Z,42.49
2019-04-26T07:06:03.128Z,43.33
2019-04-26T07:07:03.118Z,42.21
2019-04-26T07:08:04.639Z,41.46
2019-04-26T07:09:03.735Z,39.54
2019-04-26T07:10:04.088Z,38.04
2019-04-26T07:11:03.154Z,38.54
2019-04-26T07:12:03.080Z,39.73
2019-04-26T07:13:03.964Z,38.37
2019-04-26T07:14:03.075Z,39.54
2019-04-26T07:15:03.839Z,38.49
2019-04-26T07:16:16.425Z,39.42
2019-04-26T07:17:04.569Z,39.93
2019-04-26T07:18:04.302Z,40.61
2019-04-26T07:19:03.509Z,40.76
2019-04-26T07:20:04.409Z,39.48
2019-04-26T07:21:02.997Z,39.58
2019-04-26T07:22:04.063Z,38.39
2019-04-26T07:23:03.756Z,40.90
2019-04-26T07:24:03.932Z,40.70
2019-04-26T07:25:03.542Z,41.67
2019-04-26T07:26:03.803Z,40.66
2019-04-26T07:27:03.166Z,40.17
2019-04-26T07:28:06.063Z,41.53
2019-04-26T07:29:03.112Z,41.52
2019-04-26T07:30:04.103Z,41.41
2019-04-26T07:31:03.977Z,41.41
2019-04-26T07:32:03.306Z,41.22
2019-04-26T07:33:02.863Z,41.85
2019-04-26T07:34:03.511Z,42.09
2019-04-26T07:35:02.853Z,43.40
2019-04-26T07:36:03.824Z,43.34
2019-04-26T07:37:02.972Z,43.88
2019-04-26T07:38:02.825Z,45.51
2019-04-26T07:39:13.228Z,45.61
2019-04-26T07:40:04.881Z,45.39
2019-04-26T07:41:03.093Z,45.61
2019-04-26T07:42:03.209Z,47.60
2019-04-26T07:43:03.236Z,44.99
2019-04-26T07:44:03.794Z,46.53
2019-04-26T07:45:03.737Z,45.71
2019-04-26T07:46:03.957Z,45.63
2019-04-26T07:47:03.943Z,46.42
2019-04-26T07:48:03.203Z,48.19
2019-04-26T07:49:03.276Z,46.41
2019-04-26T07:50:04.765Z,47.00
2019-04-26T07:51:03.098Z,45.29
2019-04-26T07:52:02.949Z,45.79
2019-04-26T07:53:03.681Z,44.29
2019-04-26T07:54:03.883Z,45.09
2019-04-26T07:55:03.681Z,45.39
2019-04-26T07:56:03.878Z,45.07
2019-04-26T07:57:03.216Z,45.67
2019-04-26T07:58:04.970Z,45.56
2019-04-26T07:59:04.208Z,44.49
2019-04-26T08:00:02.841Z,44.59
2019-04-26T08:01:02.728Z,45.90
2019-04-26T08:02:02.562Z,45.79
2019-04-26T08:03:02.552Z,45.96
2019-04-26T08:04:03.791Z,46.36
2019-04-26T08:05:04.282Z,44.12
2019-04-26T08:06:02.975Z,45.93
2019-04-26T08:07:02.509Z,45.23
2019-04-26T08:08:02.502Z,45.45
2019-04-26T08:09:03.189Z,47.37
2019-04-26T08:10:04.469Z,46.25
2019-04-26T08:11:04.363Z,46.03
2019-04-26T08:12:04.466Z,46.11
2019-04-26T08:13:04.461Z,46.20
2019-04-26T08:14:02.439Z,45.59
2019-04-26T08:15:02.431Z,46.41
2019-04-26T08:16:02.433Z,46.08
2019-04-26T08:17:02.409Z,44.99
2019-04-26T08:18:02.400Z,45.76
2019-04-26T08:19:02.388Z,45.56
2019-04-26T08:20:02.377Z,44.87
2019-04-26T08:21:06.502Z,44.95
2019-04-26T08:22:15.182Z,45.34
2019-04-26T08:23:08.999Z,44.35
2019-04-26T08:24:03.358Z,44.85
2019-04-26T08:25:02.327Z,44.45
2019-04-26T08:26:02.340Z,44.63
2019-04-26T08:27:08.803Z,42.15
2019-04-26T08:28:03.296Z,44.33
2019-04-26T08:29:02.286Z,44.53
2019-04-26T08:30:03.313Z,43.54
2019-04-26T08:31:04.702Z,43.24
2019-04-26T08:32:02.390Z,44.43
2019-04-26T08:33:06.034Z,45.32
2019-04-26T08:34:03.239Z,44.53
2019-04-26T08:35:06.171Z,44.60
2019-04-26T08:36:03.211Z,43.44
2019-04-26T08:37:03.223Z,43.52
2019-04-26T08:38:02.191Z,44.63
2019-04-26T08:39:02.229Z,43.14
2019-04-26T08:40:02.171Z,44.75
2019-04-26T08:41:05.050Z,44.83
2019-04-26T08:42:02.161Z,44.04
2019-04-26T08:43:02.515Z,43.66
2019-04-26T08:44:03.761Z,44.13
2019-04-26T08:45:04.437Z,44.23
2019-04-26T08:46:03.576Z,44.65
2019-04-26T08:47:02.108Z,42.35
2019-04-26T08:48:02.089Z,43.34
2019-04-26T08:49:06.118Z,44.43
2019-04-26T08:50:02.069Z,44.01
2019-04-26T08:51:02.086Z,42.50
2019-04-26T08:52:13.682Z,43.28
2019-04-26T08:53:03.036Z,42.98
2019-04-26T08:54:02.027Z,40.80
2019-04-26T08:55:02.024Z,42.29
2019-04-26T08:56:02.009Z,41.52
2019-04-26T08:57:02.006Z,42.88
2019-04-26T08:58:01.986Z,41.31
2019-04-26T08:59:01.980Z,41.73
2019-04-26T09:00:01.967Z,42.43
2019-04-26T09:01:01.955Z,43.20
2019-04-26T09:02:01.975Z,43.57
2019-04-26T09:03:11.351Z,43.28
2019-04-26T09:04:02.925Z,43.08
2019-04-26T09:05:01.915Z,44.56
2019-04-26T09:06:01.904Z,41.60
2019-04-26T09:07:01.891Z,43.46
2019-04-26T09:08:03.960Z,41.69
2019-04-26T09:09:01.874Z,41.79
2019-04-26T09:10:10.489Z,42.41
2019-04-26T09:11:02.860Z,42.82
2019-04-26T09:12:03.837Z,43.22
2019-04-26T09:13:02.858Z,43.84
2019-04-26T09:14:01.824Z,42.85
2019-04-26T09:15:01.811Z,43.93
2019-04-26T09:16:01.952Z,44.04
2019-04-26T09:17:01.829Z,43.44
2019-04-26T09:18:02.130Z,43.16
2019-04-26T09:19:01.770Z,44.35
2019-04-26T09:20:07.172Z,43.96
2019-04-26T09:21:02.752Z,43.96
2019-04-26T09:22:12.393Z,44.63
2019-04-26T09:23:04.886Z,44.85
2019-04-26T09:24:01.717Z,44.35
2019-04-26T09:25:01.707Z,43.46
2019-04-26T09:26:01.720Z,44.73
2019-04-26T09:27:01.712Z,44.11
2019-04-26T09:28:01.689Z,41.93
2019-04-26T09:29:01.710Z,42.92
2019-04-26T09:30:04.897Z,44.31
2019-04-26T09:31:01.644Z,43.12
2019-04-26T09:32:01.702Z,44.81
2019-04-26T09:33:02.042Z,44.01
2019-04-26T09:34:01.636Z,44.60
2019-04-26T09:35:01.606Z,44.78
2019-04-26T09:36:01.592Z,43.20
2019-04-26T09:37:01.584Z,42.71
2019-04-26T09:38:01.574Z,41.75
2019-04-26T09:39:03.981Z,41.26
2019-04-26T09:40:10.223Z,42.45
2019-04-26T09:41:02.541Z,43.24
2019-04-26T09:42:05.904Z,43.34
2019-04-26T09:43:02.837Z,41.53
2019-04-26T09:44:01.524Z,41.16
2019-04-26T09:45:01.500Z,41.93
2019-04-26T09:46:01.491Z,42.50
2019-04-26T09:47:01.482Z,42.98
2019-04-26T09:48:01.471Z,41.49
2019-04-26T09:49:03.039Z,40.90
2019-04-26T09:50:02.449Z,42.58
2019-04-26T09:51:01.440Z,42.41
2019-04-26T09:52:01.428Z,42.80
2019-04-26T09:53:01.422Z,43.49
2019-04-26T09:54:01.420Z,43.30
2019-04-26T09:55:01.436Z,43.20
2019-04-26T09:56:01.389Z,42.21
2019-04-26T09:57:01.384Z,43.20
2019-04-26T09:58:01.377Z,43.30
2019-04-26T09:59:01.644Z,43.79
2019-04-26T10:00:01.346Z,44.49
2019-04-26T10:01:01.334Z,43.60
2019-04-26T10:02:01.323Z,43.08
2019-04-26T10:03:01.313Z,42.68
2019-04-26T10:04:01.306Z,42.98
2019-04-26T10:05:01.304Z,43.28
2019-04-26T10:06:01.283Z,43.28
2019-04-26T10:07:03.491Z,43.28
2019-04-26T10:08:01.389Z,42.49
2019-04-26T10:09:01.252Z,43.08
2019-04-26T10:10:01.252Z,42.96
2019-04-26T10:11:01.230Z,42.07
2019-04-26T10:12:01.221Z,43.16
2019-04-26T10:13:01.245Z,42.36
2019-04-26T10:14:01.198Z,42.58
2019-04-26T10:15:01.198Z,41.87
2019-04-26T10:16:02.608Z,42.27
2019-04-26T10:17:01.170Z,42.68
2019-04-26T10:18:01.157Z,42.50
2019-04-26T10:19:01.146Z,43.38
2019-04-26T10:20:02.520Z,42.66
2019-04-26T10:21:01.125Z,42.94
2019-04-26T10:22:01.114Z,43.91
2019-04-26T10:23:01.110Z,42.82
2019-04-26T10:24:01.093Z,40.53
2019-04-26T10:25:02.479Z,41.69
2019-04-26T10:26:02.072Z,41.20
2019-04-26T10:27:03.422Z,40.61
2019-04-26T10:28:01.050Z,40.80
2019-04-26T10:29:01.041Z,42.21
2019-04-26T10:30:07.840Z,40.55
2019-04-26T10:31:02.021Z,43.31
2019-04-26T10:32:01.010Z,42.52
2019-04-26T10:33:02.229Z,41.75
2019-04-26T10:34:00.992Z,43.24
2019-04-26T10:35:01.015Z,41.95
2019-04-26T10:36:00.967Z,41.57
2019-04-26T10:37:01.726Z,42.66
2019-04-26T10:38:00.945Z,43.16
2019-04-26T10:39:00.936Z,42.57
2019-04-26T10:40:00.926Z,44.15
2019-04-26T10:41:00.925Z,43.46
2019-04-26T10:42:00.904Z,42.07
2019-04-26T10:43:00.893Z,43.85
2019-04-26T10:44:00.884Z,44.24
2019-04-26T10:45:00.872Z,43.46
2019-04-26T10:46:00.869Z,44.02
2019-04-26T10:47:04.385Z,43.41
2019-04-26T10:48:01.840Z,42.32
2019-04-26T10:49:08.986Z,41.24
2019-04-26T10:50:01.822Z,42.64
2019-04-26T10:51:03.344Z,43.63
2019-04-26T10:52:01.798Z,41.87
2019-04-26T10:53:00.790Z,42.96
2019-04-26T10:54:01.620Z,41.67
2019-04-26T10:55:00.769Z,42.07
2019-04-26T10:56:00.767Z,42.49
2019-04-26T10:57:00.750Z,43.18
2019-04-26T10:58:00.735Z,43.28
2019-04-26T10:59:00.724Z,43.35
2019-04-26T11:00:00.716Z,42.96
2019-04-26T11:01:00.713Z,44.45
2019-04-26T11:02:00.708Z,43.65
2019-04-26T11:03:04.435Z,43.85
2019-04-26T11:04:01.674Z,44.05
2019-04-26T11:05:00.664Z,44.35
2019-04-26T11:06:00.665Z,44.13
2019-04-26T11:07:01.892Z,43.24
2019-04-26T11:08:00.632Z,42.05
2019-04-26T11:09:00.618Z,41.85
2019-04-26T11:10:02.958Z,41.75
2019-04-26T11:11:00.606Z,42.35
2019-04-26T11:12:00.588Z,41.85
2019-04-26T11:13:00.576Z,41.85
2019-04-26T11:14:00.568Z,43.31
2019-04-26T11:15:00.555Z,42.92
2019-04-26T11:16:02.623Z,42.90
2019-04-26T11:17:01.532Z,42.40
2019-04-26T11:18:00.524Z,41.22
2019-04-26T11:19:01.116Z,40.53
2019-04-26T11:20:00.502Z,42.78
2019-04-26T11:21:00.494Z,41.69
2019-04-26T11:22:00.490Z,40.80
2019-04-26T11:23:00.471Z,43.29
2019-04-26T11:24:00.462Z,43.98
2019-04-26T11:25:00.452Z,44.95
2019-04-26T11:26:01.717Z,41.71
2019-04-26T11:27:00.439Z,41.31
2019-04-26T11:28:00.419Z,41.41
2019-04-26T11:29:00.410Z,42.60
2019-04-26T11:30:11.108Z,42.40
2019-04-26T11:31:01.388Z,43.12
2019-04-26T11:32:02.688Z,42.84
2019-04-26T11:33:00.371Z,43.04
2019-04-26T11:34:05.483Z,43.16
2019-04-26T11:35:01.412Z,43.16
2019-04-26T11:36:03.438Z,43.65
2019-04-26T11:37:01.339Z,43.26
2019-04-26T11:38:00.416Z,43.33
2019-04-26T11:39:01.365Z,43.04
2019-04-26T11:40:00.301Z,43.16
2019-04-26T11:41:06.290Z,42.96
2019-04-26T11:42:01.282Z,42.66
2019-04-26T11:43:00.262Z,43.16
2019-04-26T11:44:00.254Z,42.17
2019-04-26T11:45:06.285Z,42.66
2019-04-26T11:46:04.501Z,43.93
2019-04-26T11:47:03.241Z,43.24
2019-04-26T11:48:03.261Z,42.84
2019-04-26T11:49:03.198Z,43.13
2019-04-26T11:50:01.216Z,42.14
2019-04-26T11:51:00.181Z,41.65
2019-04-26T11:52:02.845Z,42.46
2019-04-26T11:53:00.159Z,44.64
2019-04-26T11:54:00.149Z,43.35
2019-04-26T11:55:00.140Z,43.35
2019-04-26T11:56:04.126Z,42.86
2019-04-26T11:57:00.125Z,43.24
2019-04-26T11:58:00.105Z,42.94
2019-04-26T11:59:00.095Z,42.14
2019-04-26T12:00:01.393Z,42.74
2019-04-26T12:01:01.075Z,43.24
2019-04-26T12:02:00.073Z,43.33
2019-04-26T12:03:00.055Z,40.86
2019-04-26T12:04:00.781Z,43.33
2019-04-26T12:05:00.034Z,41.75
2019-04-26T12:06:00.023Z,41.47
2019-04-26T12:07:00.023Z,42.27
2019-04-26T12:08:00.002Z,42.98
2019-04-26T12:08:59.992Z,43.30
2019-04-26T12:09:59.980Z,43.42
2019-04-26T12:10:59.971Z,43.42
2019-04-26T12:12:04.695Z,42.92
2019-04-26T12:13:06.834Z,43.02
2019-04-26T12:14:03.846Z,43.52
2019-04-26T12:15:04.001Z,43.02
2019-04-26T12:16:00.918Z,43.49
2019-04-26T12:17:01.296Z,42.78
2019-04-26T12:17:59.906Z,42.31
2019-04-26T12:18:59.886Z,43.30
2019-04-26T12:19:59.878Z,43.28
2019-04-26T12:21:01.069Z,41.60
2019-04-26T12:21:59.856Z,42.29
2019-04-26T12:22:59.861Z,43.40
2019-04-26T12:23:59.836Z,42.50
2019-04-26T12:25:03.344Z,43.00
2019-04-26T12:26:00.812Z,42.11
2019-04-26T12:26:59.848Z,43.40
2019-04-26T12:28:01.909Z,43.00
2019-04-26T12:29:00.790Z,43.52
2019-04-26T12:29:59.772Z,43.32
2019-04-26T12:31:00.220Z,43.12
2019-04-26T12:31:59.753Z,42.92
2019-04-26T12:32:59.749Z,43.64
2019-04-26T12:33:59.731Z,43.34
2019-04-26T12:34:59.719Z,43.74
2019-04-26T12:35:59.708Z,42.74
2019-04-26T12:36:59.734Z,43.06
2019-04-26T12:37:59.703Z,43.04
2019-04-26T12:39:02.281Z,42.47
2019-04-26T12:39:59.673Z,42.96
2019-04-26T12:40:59.661Z,43.26
2019-04-26T12:41:59.708Z,42.96
2019-04-26T12:42:59.644Z,43.56
2019-04-26T12:44:03.073Z,43.38
2019-04-26T12:44:59.615Z,43.10
2019-04-26T12:45:59.603Z,43.42
2019-04-26T12:47:03.491Z,43.62
2019-04-26T12:48:00.594Z,44.81
2019-04-26T12:48:59.578Z,44.42
2019-04-26T12:50:00.456Z,44.81
2019-04-26T12:50:59.551Z,43.52
2019-04-26T12:51:59.542Z,43.13